sensor_id;sensor_type;location;lat;lon;timestamp;P1;durP1;ratioP1;P2;durP2;ratioP2
48813;SDS011;34634;44.108;3.074;2023-05-18T00:01:00;6.82;;;2.72;;
48813;SDS011;34634;44.108;3.074;2023-05-18T00:03:28;4.47;;;2.40;;
48813;SDS011;34634;44.108;3.074;2023-05-18T00:05:54;7.03;;;2.90;;
48813;SDS011;34634;44.108;3.074;2023-05-18T00:08:29;6.03;;;2.85;;
48813;SDS011;34634;44.108;3.074;2023-05-18T00:10:58;6.63;;;2.85;;
48813;SDS011;34634;44.108;3.074;2023-05-18T00:13:25;5.95;;;3.08;;
48813;SDS011;34634;44.108;3.074;2023-05-18T00:15:51;7.63;;;3.20;;
48813;SDS011;34634;44.108;3.074;2023-05-18T00:18:17;6.07;;;2.72;;
48813;SDS011;34634;44.108;3.074;2023-05-18T00:20:50;8.23;;;2.90;;
48813;SDS011;34634;44.108;3.074;2023-05-18T00:23:25;6.07;;;3.15;;
48813;SDS011;34634;44.108;3.074;2023-05-18T00:28:20;4.38;;;2.60;;
48813;SDS011;34634;44.108;3.074;2023-05-18T00:30:46;5.13;;;3.00;;
48813;SDS011;34634;44.108;3.074;2023-05-18T00:33:12;6.43;;;2.65;;
48813;SDS011;34634;44.108;3.074;2023-05-18T00:35:39;6.30;;;2.90;;
48813;SDS011;34634;44.108;3.074;2023-05-18T00:38:05;3.78;;;2.60;;
48813;SDS011;34634;44.108;3.074;2023-05-18T00:40:32;8.27;;;2.92;;
48813;SDS011;34634;44.108;3.074;2023-05-18T00:42:59;7.90;;;2.97;;
48813;SDS011;34634;44.108;3.074;2023-05-18T00:45:25;7.15;;;2.63;;
48813;SDS011;34634;44.108;3.074;2023-05-18T00:47:51;5.63;;;2.85;;
48813;SDS011;34634;44.108;3.074;2023-05-18T00:50:18;5.80;;;2.65;;
48813;SDS011;34634;44.108;3.074;2023-05-18T00:52:44;4.47;;;2.83;;
48813;SDS011;34634;44.108;3.074;2023-05-18T00:55:11;5.18;;;2.90;;
48813;SDS011;34634;44.108;3.074;2023-05-18T00:57:39;6.00;;;2.88;;
48813;SDS011;34634;44.108;3.074;2023-05-18T01:00:09;8.37;;;3.33;;
48813;SDS011;34634;44.108;3.074;2023-05-18T01:02:40;5.18;;;2.83;;
48813;SDS011;34634;44.108;3.074;2023-05-18T01:05:10;7.93;;;3.20;;
48813;SDS011;34634;44.108;3.074;2023-05-18T01:07:38;4.47;;;2.92;;
48813;SDS011;34634;44.108;3.074;2023-05-18T01:10:07;4.82;;;2.90;;
48813;SDS011;34634;44.108;3.074;2023-05-18T01:12:39;6.65;;;2.88;;
48813;SDS011;34634;44.108;3.074;2023-05-18T01:15:10;8.07;;;2.67;;
48813;SDS011;34634;44.108;3.074;2023-05-18T01:17:43;5.95;;;2.90;;
48813;SDS011;34634;44.108;3.074;2023-05-18T01:27:53;6.20;;;3.10;;
48813;SDS011;34634;44.108;3.074;2023-05-18T01:30:21;8.02;;;2.70;;
48813;SDS011;34634;44.108;3.074;2023-05-18T01:32:48;5.97;;;2.88;;
48813;SDS011;34634;44.108;3.074;2023-05-18T01:35:14;7.50;;;2.97;;
48813;SDS011;34634;44.108;3.074;2023-05-18T01:37:41;6.95;;;3.15;;
48813;SDS011;34634;44.108;3.074;2023-05-18T01:40:07;6.25;;;3.10;;
48813;SDS011;34634;44.108;3.074;2023-05-18T01:42:45;5.68;;;3.08;;
48813;SDS011;34634;44.108;3.074;2023-05-18T01:45:18;7.38;;;3.05;;
48813;SDS011;34634;44.108;3.074;2023-05-18T01:47:46;5.82;;;2.90;;
48813;SDS011;34634;44.108;3.074;2023-05-18T01:50:15;6.43;;;2.90;;
48813;SDS011;34634;44.108;3.074;2023-05-18T01:52:45;5.68;;;3.05;;
48813;SDS011;34634;44.108;3.074;2023-05-18T01:55:13;5.47;;;3.10;;
48813;SDS011;34634;44.108;3.074;2023-05-18T01:57:40;5.35;;;3.00;;
48813;SDS011;34634;44.108;3.074;2023-05-18T02:00:09;7.00;;;2.97;;
48813;SDS011;34634;44.108;3.074;2023-05-18T02:02:37;5.72;;;3.03;;
48813;SDS011;34634;44.108;3.074;2023-05-18T02:05:03;9.40;;;3.65;;
48813;SDS011;34634;44.108;3.074;2023-05-18T02:07:31;7.40;;;2.83;;
48813;SDS011;34634;44.108;3.074;2023-05-18T02:09:58;5.05;;;2.90;;
48813;SDS011;34634;44.108;3.074;2023-05-18T02:12:24;8.48;;;3.00;;
48813;SDS011;34634;44.108;3.074;2023-05-18T02:14:50;5.88;;;2.95;;
48813;SDS011;34634;44.108;3.074;2023-05-18T02:17:17;5.90;;;2.90;;
48813;SDS011;34634;44.108;3.074;2023-05-18T02:19:43;5.50;;;3.25;;
48813;SDS011;34634;44.108;3.074;2023-05-18T02:22:09;8.55;;;3.05;;
48813;SDS011;34634;44.108;3.074;2023-05-18T02:24:36;6.57;;;3.15;;
48813;SDS011;34634;44.108;3.074;2023-05-18T02:27:03;6.78;;;2.90;;
48813;SDS011;34634;44.108;3.074;2023-05-18T02:29:30;7.40;;;2.85;;
48813;SDS011;34634;44.108;3.074;2023-05-18T02:31:56;7.72;;;2.97;;
48813;SDS011;34634;44.108;3.074;2023-05-18T02:34:23;8.55;;;3.33;;
48813;SDS011;34634;44.108;3.074;2023-05-18T02:36:49;7.93;;;2.85;;
48813;SDS011;34634;44.108;3.074;2023-05-18T02:39:15;6.60;;;3.50;;
48813;SDS011;34634;44.108;3.074;2023-05-18T02:41:42;6.60;;;3.15;;
48813;SDS011;34634;44.108;3.074;2023-05-18T02:44:08;6.80;;;3.17;;
48813;SDS011;34634;44.108;3.074;2023-05-18T02:46:36;7.88;;;3.42;;
48813;SDS011;34634;44.108;3.074;2023-05-18T02:49:02;8.23;;;3.40;;
48813;SDS011;34634;44.108;3.074;2023-05-18T02:51:29;5.55;;;3.15;;
48813;SDS011;34634;44.108;3.074;2023-05-18T02:53:55;6.68;;;2.80;;
48813;SDS011;34634;44.108;3.074;2023-05-18T02:56:22;6.25;;;3.25;;
48813;SDS011;34634;44.108;3.074;2023-05-18T02:58:49;7.38;;;2.80;;
48813;SDS011;34634;44.108;3.074;2023-05-18T03:01:21;7.75;;;3.00;;
48813;SDS011;34634;44.108;3.074;2023-05-18T03:03:53;6.50;;;3.10;;
48813;SDS011;34634;44.108;3.074;2023-05-18T03:06:22;10.95;;;3.03;;
48813;SDS011;34634;44.108;3.074;2023-05-18T03:08:53;6.35;;;3.00;;
48813;SDS011;34634;44.108;3.074;2023-05-18T03:11:20;5.93;;;3.10;;
48813;SDS011;34634;44.108;3.074;2023-05-18T03:13:47;5.97;;;2.90;;
48813;SDS011;34634;44.108;3.074;2023-05-18T03:16:13;9.02;;;3.50;;
48813;SDS011;34634;44.108;3.074;2023-05-18T03:18:39;6.72;;;3.17;;
48813;SDS011;34634;44.108;3.074;2023-05-18T03:21:06;7.43;;;2.88;;
48813;SDS011;34634;44.108;3.074;2023-05-18T03:23:33;8.02;;;3.08;;
48813;SDS011;34634;44.108;3.074;2023-05-18T03:25:59;5.20;;;2.85;;
48813;SDS011;34634;44.108;3.074;2023-05-18T03:28:28;8.90;;;3.40;;
48813;SDS011;34634;44.108;3.074;2023-05-18T03:30:55;8.60;;;3.35;;
48813;SDS011;34634;44.108;3.074;2023-05-18T03:33:21;7.13;;;3.45;;
48813;SDS011;34634;44.108;3.074;2023-05-18T03:35:47;5.90;;;3.28;;
48813;SDS011;34634;44.108;3.074;2023-05-18T03:38:14;8.57;;;3.28;;
48813;SDS011;34634;44.108;3.074;2023-05-18T03:40:40;8.50;;;3.58;;
48813;SDS011;34634;44.108;3.074;2023-05-18T03:43:07;5.35;;;3.30;;
48813;SDS011;34634;44.108;3.074;2023-05-18T03:45:33;6.85;;;3.50;;
48813;SDS011;34634;44.108;3.074;2023-05-18T03:47:59;5.60;;;3.25;;
48813;SDS011;34634;44.108;3.074;2023-05-18T03:50:26;7.03;;;3.78;;
48813;SDS011;34634;44.108;3.074;2023-05-18T03:52:53;7.40;;;3.60;;
48813;SDS011;34634;44.108;3.074;2023-05-18T03:55:20;13.63;;;3.35;;
48813;SDS011;34634;44.108;3.074;2023-05-18T03:57:46;8.25;;;3.53;;
48813;SDS011;34634;44.108;3.074;2023-05-18T04:00:13;7.15;;;3.17;;
48813;SDS011;34634;44.108;3.074;2023-05-18T04:02:40;7.10;;;3.67;;
48813;SDS011;34634;44.108;3.074;2023-05-18T04:05:06;6.93;;;3.55;;
48813;SDS011;34634;44.108;3.074;2023-05-18T04:07:33;9.13;;;3.30;;
48813;SDS011;34634;44.108;3.074;2023-05-18T04:10:11;7.93;;;3.67;;
48813;SDS011;34634;44.108;3.074;2023-05-18T04:12:38;5.75;;;3.00;;
48813;SDS011;34634;44.108;3.074;2023-05-18T04:15:05;9.57;;;3.20;;
48813;SDS011;34634;44.108;3.074;2023-05-18T04:17:31;8.02;;;3.50;;
48813;SDS011;34634;44.108;3.074;2023-05-18T04:19:59;7.57;;;3.20;;
48813;SDS011;34634;44.108;3.074;2023-05-18T04:22:29;10.43;;;3.47;;
48813;SDS011;34634;44.108;3.074;2023-05-18T04:24:56;8.68;;;3.50;;
48813;SDS011;34634;44.108;3.074;2023-05-18T04:27:22;7.38;;;3.42;;
48813;SDS011;34634;44.108;3.074;2023-05-18T04:29:49;7.82;;;3.70;;
48813;SDS011;34634;44.108;3.074;2023-05-18T04:32:16;8.18;;;3.42;;
48813;SDS011;34634;44.108;3.074;2023-05-18T04:34:42;6.38;;;3.05;;
48813;SDS011;34634;44.108;3.074;2023-05-18T04:37:08;7.65;;;3.30;;
48813;SDS011;34634;44.108;3.074;2023-05-18T04:39:35;7.03;;;3.50;;
48813;SDS011;34634;44.108;3.074;2023-05-18T04:42:03;6.80;;;3.00;;
48813;SDS011;34634;44.108;3.074;2023-05-18T04:44:30;8.02;;;3.25;;
48813;SDS011;34634;44.108;3.074;2023-05-18T04:46:58;5.90;;;3.25;;
48813;SDS011;34634;44.108;3.074;2023-05-18T04:49:24;12.00;;;3.58;;
48813;SDS011;34634;44.108;3.074;2023-05-18T04:51:53;10.82;;;3.60;;
48813;SDS011;34634;44.108;3.074;2023-05-18T04:54:23;6.28;;;3.22;;
48813;SDS011;34634;44.108;3.074;2023-05-18T04:56:50;9.27;;;3.80;;
48813;SDS011;34634;44.108;3.074;2023-05-18T04:59:17;8.45;;;3.40;;
48813;SDS011;34634;44.108;3.074;2023-05-18T05:01:44;6.90;;;3.17;;
48813;SDS011;34634;44.108;3.074;2023-05-18T05:04:11;6.80;;;3.40;;
48813;SDS011;34634;44.108;3.074;2023-05-18T05:06:37;11.32;;;4.00;;
48813;SDS011;34634;44.108;3.074;2023-05-18T05:09:03;8.50;;;3.83;;
48813;SDS011;34634;44.108;3.074;2023-05-18T05:11:30;5.90;;;3.33;;
48813;SDS011;34634;44.108;3.074;2023-05-18T05:13:56;8.30;;;3.95;;
48813;SDS011;34634;44.108;3.074;2023-05-18T05:16:23;5.68;;;3.17;;
48813;SDS011;34634;44.108;3.074;2023-05-18T05:18:49;8.07;;;3.00;;
48813;SDS011;34634;44.108;3.074;2023-05-18T05:21:15;6.57;;;3.33;;
48813;SDS011;34634;44.108;3.074;2023-05-18T05:23:42;8.88;;;3.53;;
48813;SDS011;34634;44.108;3.074;2023-05-18T05:26:09;7.07;;;3.53;;
48813;SDS011;34634;44.108;3.074;2023-05-18T05:28:35;8.23;;;3.28;;
48813;SDS011;34634;44.108;3.074;2023-05-18T05:31:02;6.70;;;3.28;;
48813;SDS011;34634;44.108;3.074;2023-05-18T05:33:28;8.77;;;3.40;;
48813;SDS011;34634;44.108;3.074;2023-05-18T05:35:55;6.70;;;3.38;;
48813;SDS011;34634;44.108;3.074;2023-05-18T05:38:21;6.93;;;4.13;;
48813;SDS011;34634;44.108;3.074;2023-05-18T05:40:47;10.25;;;5.60;;
48813;SDS011;34634;44.108;3.074;2023-05-18T05:43:14;10.52;;;3.88;;
48813;SDS011;34634;44.108;3.074;2023-05-18T05:45:40;6.53;;;3.45;;
48813;SDS011;34634;44.108;3.074;2023-05-18T05:48:08;8.85;;;3.90;;
48813;SDS011;34634;44.108;3.074;2023-05-18T05:50:34;23.42;;;4.57;;
48813;SDS011;34634;44.108;3.074;2023-05-18T05:53:00;6.32;;;3.50;;
48813;SDS011;34634;44.108;3.074;2023-05-18T05:55:27;6.25;;;3.30;;
48813;SDS011;34634;44.108;3.074;2023-05-18T05:57:53;5.57;;;3.30;;
48813;SDS011;34634;44.108;3.074;2023-05-18T06:00:19;9.45;;;3.45;;
48813;SDS011;34634;44.108;3.074;2023-05-18T06:02:47;8.38;;;3.40;;
48813;SDS011;34634;44.108;3.074;2023-05-18T06:05:14;6.03;;;3.55;;
48813;SDS011;34634;44.108;3.074;2023-05-18T06:07:40;8.77;;;3.53;;
48813;SDS011;34634;44.108;3.074;2023-05-18T06:10:07;8.90;;;3.55;;
48813;SDS011;34634;44.108;3.074;2023-05-18T06:12:33;6.47;;;3.25;;
48813;SDS011;34634;44.108;3.074;2023-05-18T06:15:00;5.85;;;3.30;;
48813;SDS011;34634;44.108;3.074;2023-05-18T06:17:27;5.40;;;3.47;;
48813;SDS011;34634;44.108;3.074;2023-05-18T06:19:54;6.13;;;3.20;;
48813;SDS011;34634;44.108;3.074;2023-05-18T06:22:22;6.85;;;3.15;;
48813;SDS011;34634;44.108;3.074;2023-05-18T06:24:48;5.70;;;3.25;;
48813;SDS011;34634;44.108;3.074;2023-05-18T06:27:15;7.93;;;3.15;;
48813;SDS011;34634;44.108;3.074;2023-05-18T06:29:41;5.07;;;3.05;;
48813;SDS011;34634;44.108;3.074;2023-05-18T06:32:07;6.28;;;3.63;;
48813;SDS011;34634;44.108;3.074;2023-05-18T06:34:34;7.85;;;2.97;;
48813;SDS011;34634;44.108;3.074;2023-05-18T06:37:01;4.32;;;3.00;;
48813;SDS011;34634;44.108;3.074;2023-05-18T06:39:28;6.43;;;3.30;;
48813;SDS011;34634;44.108;3.074;2023-05-18T06:41:54;6.78;;;3.15;;
48813;SDS011;34634;44.108;3.074;2023-05-18T06:44:21;10.88;;;3.33;;
48813;SDS011;34634;44.108;3.074;2023-05-18T06:46:47;4.68;;;2.88;;
48813;SDS011;34634;44.108;3.074;2023-05-18T06:49:13;6.32;;;3.53;;
48813;SDS011;34634;44.108;3.074;2023-05-18T06:51:40;6.38;;;3.15;;
48813;SDS011;34634;44.108;3.074;2023-05-18T06:54:08;9.32;;;3.33;;
48813;SDS011;34634;44.108;3.074;2023-05-18T06:56:34;6.45;;;3.20;;
48813;SDS011;34634;44.108;3.074;2023-05-18T06:59:00;5.88;;;3.10;;
48813;SDS011;34634;44.108;3.074;2023-05-18T07:01:27;4.47;;;2.67;;
48813;SDS011;34634;44.108;3.074;2023-05-18T07:03:53;5.35;;;3.10;;
48813;SDS011;34634;44.108;3.074;2023-05-18T07:06:19;5.55;;;3.08;;
48813;SDS011;34634;44.108;3.074;2023-05-18T07:08:46;5.55;;;2.90;;
48813;SDS011;34634;44.108;3.074;2023-05-18T07:11:13;5.32;;;3.20;;
48813;SDS011;34634;44.108;3.074;2023-05-18T07:13:39;4.57;;;2.80;;
48813;SDS011;34634;44.108;3.074;2023-05-18T07:16:05;4.38;;;2.83;;
48813;SDS011;34634;44.108;3.074;2023-05-18T07:18:32;5.38;;;2.92;;
48813;SDS011;34634;44.108;3.074;2023-05-18T07:20:58;6.82;;;3.22;;
48813;SDS011;34634;44.108;3.074;2023-05-18T07:23:24;4.93;;;2.97;;
48813;SDS011;34634;44.108;3.074;2023-05-18T07:25:51;4.70;;;3.03;;
48813;SDS011;34634;44.108;3.074;2023-05-18T07:28:17;4.80;;;3.15;;
48813;SDS011;34634;44.108;3.074;2023-05-18T07:30:43;6.00;;;2.78;;
48813;SDS011;34634;44.108;3.074;2023-05-18T07:33:10;6.10;;;2.97;;
48813;SDS011;34634;44.108;3.074;2023-05-18T07:35:36;4.70;;;2.90;;
48813;SDS011;34634;44.108;3.074;2023-05-18T07:38:02;4.55;;;3.13;;
48813;SDS011;34634;44.108;3.074;2023-05-18T07:40:29;4.30;;;2.67;;
48813;SDS011;34634;44.108;3.074;2023-05-18T07:42:55;4.32;;;2.88;;
48813;SDS011;34634;44.108;3.074;2023-05-18T07:45:21;6.20;;;2.53;;
48813;SDS011;34634;44.108;3.074;2023-05-18T07:47:48;6.18;;;3.00;;
48813;SDS011;34634;44.108;3.074;2023-05-18T07:50:14;3.33;;;2.42;;
48813;SDS011;34634;44.108;3.074;2023-05-18T07:52:41;6.80;;;2.70;;
48813;SDS011;34634;44.108;3.074;2023-05-18T07:55:07;4.78;;;2.63;;
48813;SDS011;34634;44.108;3.074;2023-05-18T07:57:33;8.48;;;2.78;;
48813;SDS011;34634;44.108;3.074;2023-05-18T08:00:00;5.03;;;3.13;;
48813;SDS011;34634;44.108;3.074;2023-05-18T08:02:28;2.90;;;2.40;;
48813;SDS011;34634;44.108;3.074;2023-05-18T08:04:55;5.45;;;2.78;;
48813;SDS011;34634;44.108;3.074;2023-05-18T08:07:21;3.95;;;2.88;;
48813;SDS011;34634;44.108;3.074;2023-05-18T08:09:50;5.68;;;2.47;;
48813;SDS011;34634;44.108;3.074;2023-05-18T08:12:17;3.25;;;2.22;;
48813;SDS011;34634;44.108;3.074;2023-05-18T08:14:43;2.75;;;2.40;;
48813;SDS011;34634;44.108;3.074;2023-05-18T08:17:09;4.47;;;2.75;;
48813;SDS011;34634;44.108;3.074;2023-05-18T08:19:36;3.00;;;2.50;;
48813;SDS011;34634;44.108;3.074;2023-05-18T08:22:02;3.63;;;2.60;;
48813;SDS011;34634;44.108;3.074;2023-05-18T08:24:29;4.22;;;2.53;;
48813;SDS011;34634;44.108;3.074;2023-05-18T08:26:56;2.83;;;2.40;;
48813;SDS011;34634;44.108;3.074;2023-05-18T08:29:22;3.20;;;2.33;;
48813;SDS011;34634;44.108;3.074;2023-05-18T08:31:49;2.80;;;2.38;;
48813;SDS011;34634;44.108;3.074;2023-05-18T08:34:16;2.80;;;2.20;;
48813;SDS011;34634;44.108;3.074;2023-05-18T08:36:42;3.70;;;2.33;;
48813;SDS011;34634;44.108;3.074;2023-05-18T08:39:10;4.88;;;2.55;;
48813;SDS011;34634;44.108;3.074;2023-05-18T08:44:19;4.10;;;2.25;;
48813;SDS011;34634;44.108;3.074;2023-05-18T08:46:46;3.65;;;2.58;;
48813;SDS011;34634;44.108;3.074;2023-05-18T08:49:19;3.40;;;2.40;;
48813;SDS011;34634;44.108;3.074;2023-05-18T08:51:46;5.93;;;2.42;;
48813;SDS011;34634;44.108;3.074;2023-05-18T08:54:20;3.13;;;2.25;;
48813;SDS011;34634;44.108;3.074;2023-05-18T08:56:46;4.55;;;2.42;;
48813;SDS011;34634;44.108;3.074;2023-05-18T08:59:13;2.30;;;2.10;;
48813;SDS011;34634;44.108;3.074;2023-05-18T09:01:41;3.13;;;2.28;;
48813;SDS011;34634;44.108;3.074;2023-05-18T09:04:08;3.05;;;2.13;;
48813;SDS011;34634;44.108;3.074;2023-05-18T09:06:34;3.10;;;2.20;;
48813;SDS011;34634;44.108;3.074;2023-05-18T09:09:01;3.10;;;2.33;;
48813;SDS011;34634;44.108;3.074;2023-05-18T09:11:31;2.85;;;1.95;;
48813;SDS011;34634;44.108;3.074;2023-05-18T09:13:58;5.25;;;2.25;;
48813;SDS011;34634;44.108;3.074;2023-05-18T09:16:25;3.45;;;1.90;;
48813;SDS011;34634;44.108;3.074;2023-05-18T09:18:51;4.82;;;2.38;;
48813;SDS011;34634;44.108;3.074;2023-05-18T09:21:18;2.90;;;2.05;;
48813;SDS011;34634;44.108;3.074;2023-05-18T09:23:44;3.17;;;2.40;;
48813;SDS011;34634;44.108;3.074;2023-05-18T09:26:11;4.13;;;2.20;;
48813;SDS011;34634;44.108;3.074;2023-05-18T09:28:38;10.07;;;2.50;;
48813;SDS011;34634;44.108;3.074;2023-05-18T09:31:08;3.70;;;2.38;;
48813;SDS011;34634;44.108;3.074;2023-05-18T09:33:37;2.85;;;2.25;;
48813;SDS011;34634;44.108;3.074;2023-05-18T09:36:07;4.32;;;2.10;;
48813;SDS011;34634;44.108;3.074;2023-05-18T09:38:37;3.58;;;2.25;;
48813;SDS011;34634;44.108;3.074;2023-05-18T09:41:08;2.70;;;1.97;;
48813;SDS011;34634;44.108;3.074;2023-05-18T09:43:35;3.45;;;2.50;;
48813;SDS011;34634;44.108;3.074;2023-05-18T09:46:04;4.18;;;2.25;;
48813;SDS011;34634;44.108;3.074;2023-05-18T09:48:31;2.70;;;2.22;;
48813;SDS011;34634;44.108;3.074;2023-05-18T09:51:00;4.78;;;2.13;;
48813;SDS011;34634;44.108;3.074;2023-05-18T09:53:26;4.13;;;2.42;;
48813;SDS011;34634;44.108;3.074;2023-05-18T09:55:52;5.20;;;2.38;;
48813;SDS011;34634;44.108;3.074;2023-05-18T09:58:19;2.75;;;1.75;;
48813;SDS011;34634;44.108;3.074;2023-05-18T10:00:48;3.65;;;2.30;;
48813;SDS011;34634;44.108;3.074;2023-05-18T10:03:21;3.08;;;2.10;;
48813;SDS011;34634;44.108;3.074;2023-05-18T10:05:48;5.82;;;2.60;;
48813;SDS011;34634;44.108;3.074;2023-05-18T10:08:15;4.35;;;2.33;;
48813;SDS011;34634;44.108;3.074;2023-05-18T10:10:43;5.45;;;2.63;;
48813;SDS011;34634;44.108;3.074;2023-05-18T10:13:13;3.67;;;2.42;;
48813;SDS011;34634;44.108;3.074;2023-05-18T10:15:46;4.25;;;2.28;;
48813;SDS011;34634;44.108;3.074;2023-05-18T10:18:12;7.32;;;2.80;;
48813;SDS011;34634;44.108;3.074;2023-05-18T10:20:41;6.03;;;2.60;;
48813;SDS011;34634;44.108;3.074;2023-05-18T10:23:08;4.20;;;2.30;;
48813;SDS011;34634;44.108;3.074;2023-05-18T10:25:35;4.28;;;2.20;;
48813;SDS011;34634;44.108;3.074;2023-05-18T10:28:04;3.55;;;2.65;;
48813;SDS011;34634;44.108;3.074;2023-05-18T10:30:31;6.28;;;2.50;;
48813;SDS011;34634;44.108;3.074;2023-05-18T10:32:58;4.55;;;3.03;;
48813;SDS011;34634;44.108;3.074;2023-05-18T10:35:26;3.97;;;2.75;;
48813;SDS011;34634;44.108;3.074;2023-05-18T10:37:53;3.92;;;2.38;;
48813;SDS011;34634;44.108;3.074;2023-05-18T10:40:20;4.85;;;2.63;;
48813;SDS011;34634;44.108;3.074;2023-05-18T10:42:48;4.35;;;2.42;;
48813;SDS011;34634;44.108;3.074;2023-05-18T10:45:15;3.58;;;2.05;;
48813;SDS011;34634;44.108;3.074;2023-05-18T10:47:42;3.85;;;2.25;;
48813;SDS011;34634;44.108;3.074;2023-05-18T10:50:08;3.88;;;2.60;;
48813;SDS011;34634;44.108;3.074;2023-05-18T10:52:38;3.83;;;2.13;;
48813;SDS011;34634;44.108;3.074;2023-05-18T10:55:05;3.33;;;2.30;;
48813;SDS011;34634;44.108;3.074;2023-05-18T10:57:37;4.35;;;2.53;;
48813;SDS011;34634;44.108;3.074;2023-05-18T11:00:05;5.82;;;2.28;;
48813;SDS011;34634;44.108;3.074;2023-05-18T11:02:35;2.13;;;1.80;;
48813;SDS011;34634;44.108;3.074;2023-05-18T11:05:04;3.08;;;2.03;;
48813;SDS011;34634;44.108;3.074;2023-05-18T11:07:31;3.13;;;1.98;;
48813;SDS011;34634;44.108;3.074;2023-05-18T11:09:59;4.10;;;2.20;;
48813;SDS011;34634;44.108;3.074;2023-05-18T11:12:26;4.35;;;2.30;;
48813;SDS011;34634;44.108;3.074;2023-05-18T11:14:53;4.07;;;2.50;;
48813;SDS011;34634;44.108;3.074;2023-05-18T11:17:25;3.63;;;2.33;;
48813;SDS011;34634;44.108;3.074;2023-05-18T11:22:47;2.70;;;2.25;;
48813;SDS011;34634;44.108;3.074;2023-05-18T11:27:51;4.05;;;2.13;;
48813;SDS011;34634;44.108;3.074;2023-05-18T11:30:27;6.30;;;2.38;;
48813;SDS011;34634;44.108;3.074;2023-05-18T11:36:21;4.65;;;2.20;;
48813;SDS011;34634;44.108;3.074;2023-05-18T11:38:22;3.97;;;2.55;;
48813;SDS011;34634;44.108;3.074;2023-05-18T11:40:49;3.63;;;2.25;;
48813;SDS011;34634;44.108;3.074;2023-05-18T11:45:52;2.40;;;2.20;;
48813;SDS011;34634;44.108;3.074;2023-05-18T11:48:24;3.22;;;2.33;;
48813;SDS011;34634;44.108;3.074;2023-05-18T11:50:54;4.03;;;2.40;;
48813;SDS011;34634;44.108;3.074;2023-05-18T11:53:24;3.27;;;2.37;;
48813;SDS011;34634;44.108;3.074;2023-05-18T11:55:51;4.55;;;2.42;;
48813;SDS011;34634;44.108;3.074;2023-05-18T11:58:23;4.10;;;2.53;;
48813;SDS011;34634;44.108;3.074;2023-05-18T12:00:50;5.03;;;2.10;;
48813;SDS011;34634;44.108;3.074;2023-05-18T12:03:17;4.60;;;2.20;;
48813;SDS011;34634;44.108;3.074;2023-05-18T12:05:44;2.97;;;1.95;;
48813;SDS011;34634;44.108;3.074;2023-05-18T12:08:16;6.50;;;2.47;;
48813;SDS011;34634;44.108;3.074;2023-05-18T12:10:43;3.38;;;2.40;;
48813;SDS011;34634;44.108;3.074;2023-05-18T12:13:13;4.30;;;2.15;;
48813;SDS011;34634;44.108;3.074;2023-05-18T12:15:41;8.30;;;3.42;;
48813;SDS011;34634;44.108;3.074;2023-05-18T12:18:08;3.53;;;2.30;;
48813;SDS011;34634;44.108;3.074;2023-05-18T12:20:37;3.40;;;2.30;;
48813;SDS011;34634;44.108;3.074;2023-05-18T12:23:04;3.28;;;2.42;;
48813;SDS011;34634;44.108;3.074;2023-05-18T12:25:31;5.80;;;2.53;;
48813;SDS011;34634;44.108;3.074;2023-05-18T12:27:57;3.92;;;2.42;;
48813;SDS011;34634;44.108;3.074;2023-05-18T12:30:24;5.18;;;2.58;;
48813;SDS011;34634;44.108;3.074;2023-05-18T12:32:58;3.17;;;1.95;;
48813;SDS011;34634;44.108;3.074;2023-05-18T12:35:27;5.70;;;2.63;;
48813;SDS011;34634;44.108;3.074;2023-05-18T12:37:54;5.10;;;2.50;;
48813;SDS011;34634;44.108;3.074;2023-05-18T12:40:25;6.63;;;2.45;;
48813;SDS011;34634;44.108;3.074;2023-05-18T12:45:20;4.65;;;3.05;;
48813;SDS011;34634;44.108;3.074;2023-05-18T12:47:47;6.32;;;2.40;;
48813;SDS011;34634;44.108;3.074;2023-05-18T12:50:18;4.75;;;2.22;;
48813;SDS011;34634;44.108;3.074;2023-05-18T12:52:46;3.75;;;2.17;;
48813;SDS011;34634;44.108;3.074;2023-05-18T12:55:18;6.63;;;2.38;;
48813;SDS011;34634;44.108;3.074;2023-05-18T12:58:05;4.60;;;2.40;;
48813;SDS011;34634;44.108;3.074;2023-05-18T13:00:41;8.02;;;3.15;;
48813;SDS011;34634;44.108;3.074;2023-05-18T13:03:08;4.30;;;2.42;;
48813;SDS011;34634;44.108;3.074;2023-05-18T13:05:35;5.00;;;2.50;;
48813;SDS011;34634;44.108;3.074;2023-05-18T13:08:01;6.10;;;2.28;;
48813;SDS011;34634;44.108;3.074;2023-05-18T13:10:28;5.32;;;2.60;;
48813;SDS011;34634;44.108;3.074;2023-05-18T13:12:56;6.63;;;2.42;;
48813;SDS011;34634;44.108;3.074;2023-05-18T13:15:31;4.68;;;2.60;;
48813;SDS011;34634;44.108;3.074;2023-05-18T13:17:58;6.55;;;2.42;;
48813;SDS011;34634;44.108;3.074;2023-05-18T13:20:44;4.38;;;2.50;;
48813;SDS011;34634;44.108;3.074;2023-05-18T13:23:14;6.13;;;2.75;;
48813;SDS011;34634;44.108;3.074;2023-05-18T13:25:41;4.40;;;2.50;;
48813;SDS011;34634;44.108;3.074;2023-05-18T13:28:08;4.35;;;2.30;;
48813;SDS011;34634;44.108;3.074;2023-05-18T13:30:38;4.60;;;2.60;;
48813;SDS011;34634;44.108;3.074;2023-05-18T13:33:04;3.60;;;2.63;;
48813;SDS011;34634;44.108;3.074;2023-05-18T13:35:35;6.45;;;2.72;;
48813;SDS011;34634;44.108;3.074;2023-05-18T13:38:01;10.15;;;5.68;;
48813;SDS011;34634;44.108;3.074;2023-05-18T13:40:28;7.68;;;3.20;;
48813;SDS011;34634;44.108;3.074;2023-05-18T13:42:54;5.78;;;3.13;;
48813;SDS011;34634;44.108;3.074;2023-05-18T13:45:20;6.15;;;2.85;;
48813;SDS011;34634;44.108;3.074;2023-05-18T13:47:47;8.30;;;3.08;;
48813;SDS011;34634;44.108;3.074;2023-05-18T13:50:18;9.02;;;2.85;;
48813;SDS011;34634;44.108;3.074;2023-05-18T13:52:45;7.45;;;2.72;;
48813;SDS011;34634;44.108;3.074;2023-05-18T13:55:12;5.13;;;3.20;;
48813;SDS011;34634;44.108;3.074;2023-05-18T13:57:38;8.05;;;3.28;;
48813;SDS011;34634;44.108;3.074;2023-05-18T14:00:05;5.15;;;2.88;;
48813;SDS011;34634;44.108;3.074;2023-05-18T14:02:41;8.45;;;3.55;;
48813;SDS011;34634;44.108;3.074;2023-05-18T14:05:08;5.97;;;3.10;;
48813;SDS011;34634;44.108;3.074;2023-05-18T14:07:35;5.30;;;3.17;;
48813;SDS011;34634;44.108;3.074;2023-05-18T14:10:02;4.72;;;3.20;;
48813;SDS011;34634;44.108;3.074;2023-05-18T14:12:28;6.10;;;3.38;;
48813;SDS011;34634;44.108;3.074;2023-05-18T14:14:54;5.22;;;3.00;;
48813;SDS011;34634;44.108;3.074;2023-05-18T14:17:21;8.00;;;4.03;;
48813;SDS011;34634;44.108;3.074;2023-05-18T14:19:47;6.30;;;2.92;;
48813;SDS011;34634;44.108;3.074;2023-05-18T14:22:14;6.75;;;3.03;;
48813;SDS011;34634;44.108;3.074;2023-05-18T14:24:41;5.85;;;3.28;;
48813;SDS011;34634;44.108;3.074;2023-05-18T14:27:08;6.20;;;3.50;;
48813;SDS011;34634;44.108;3.074;2023-05-18T14:29:34;9.38;;;3.22;;
48813;SDS011;34634;44.108;3.074;2023-05-18T14:32:01;6.70;;;3.35;;
48813;SDS011;34634;44.108;3.074;2023-05-18T14:34:27;5.00;;;3.40;;
48813;SDS011;34634;44.108;3.074;2023-05-18T14:36:53;5.97;;;3.67;;
48813;SDS011;34634;44.108;3.074;2023-05-18T14:39:20;7.47;;;3.97;;
48813;SDS011;34634;44.108;3.074;2023-05-18T14:41:46;6.57;;;3.83;;
48813;SDS011;34634;44.108;3.074;2023-05-18T14:44:13;6.43;;;3.78;;
48813;SDS011;34634;44.108;3.074;2023-05-18T14:46:39;8.27;;;3.50;;
48813;SDS011;34634;44.108;3.074;2023-05-18T14:49:06;5.07;;;3.50;;
48813;SDS011;34634;44.108;3.074;2023-05-18T14:51:32;6.30;;;3.15;;
48813;SDS011;34634;44.108;3.074;2023-05-18T14:53:58;6.57;;;3.03;;
48813;SDS011;34634;44.108;3.074;2023-05-18T14:56:25;5.28;;;3.20;;
48813;SDS011;34634;44.108;3.074;2023-05-18T14:58:51;6.10;;;3.40;;
48813;SDS011;34634;44.108;3.074;2023-05-18T15:01:18;8.00;;;3.58;;
48813;SDS011;34634;44.108;3.074;2023-05-18T15:03:44;7.22;;;3.08;;
48813;SDS011;34634;44.108;3.074;2023-05-18T15:06:10;7.47;;;3.33;;
48813;SDS011;34634;44.108;3.074;2023-05-18T15:08:37;6.35;;;3.15;;
48813;SDS011;34634;44.108;3.074;2023-05-18T15:11:04;6.25;;;2.88;;
48813;SDS011;34634;44.108;3.074;2023-05-18T15:13:30;9.35;;;2.80;;
48813;SDS011;34634;44.108;3.074;2023-05-18T15:15:57;8.80;;;2.83;;